sensor_id;sensor_type;location;lat;lon;timestamp;P1;durP1;ratioP1;P2;durP2;ratioP2
3683;SDS011;1858;48.716;9.648;2023-06-04T00:00:04;12.40;;;3.03;;
3683;SDS011;1858;48.716;9.648;2023-06-04T00:02:34;15.20;;;2.30;;
3683;SDS011;1858;48.716;9.648;2023-06-04T00:05:03;9.67;;;2.60;;
3683;SDS011;1858;48.716;9.648;2023-06-04T00:07:32;11.70;;;2.70;;
3683;SDS011;1858;48.716;9.648;2023-06-04T00:10:00;10.93;;;2.80;;
3683;SDS011;1858;48.716;9.648;2023-06-04T00:12:28;11.30;;;2.40;;
3683;SDS011;1858;48.716;9.648;2023-06-04T00:14:57;11.30;;;2.67;;
3683;SDS011;1858;48.716;9.648;2023-06-04T00:17:25;13.43;;;2.80;;
3683;SDS011;1858;48.716;9.648;2023-06-04T00:19:53;11.00;;;3.00;;
3683;SDS011;1858;48.716;9.648;2023-06-04T00:22:22;14.87;;;3.63;;
3683;SDS011;1858;48.716;9.648;2023-06-04T00:24:51;17.10;;;3.33;;
3683;SDS011;1858;48.716;9.648;2023-06-04T00:27:19;12.67;;;3.97;;
3683;SDS011;1858;48.716;9.648;2023-06-04T00:29:48;11.47;;;3.67;;
3683;SDS011;1858;48.716;9.648;2023-06-04T00:32:16;12.00;;;3.00;;
3683;SDS011;1858;48.716;9.648;2023-06-04T00:34:55;10.50;;;3.40;;
3683;SDS011;1858;48.716;9.648;2023-06-04T00:37:18;11.37;;;3.20;;
3683;SDS011;1858;48.716;9.648;2023-06-04T00:39:47;15.40;;;3.63;;
3683;SDS011;1858;48.716;9.648;2023-06-04T00:42:15;10.20;;;1.97;;
3683;SDS011;1858;48.716;9.648;2023-06-04T00:44:44;10.50;;;2.20;;
3683;SDS011;1858;48.716;9.648;2023-06-04T00:47:14;10.30;;;2.27;;
3683;SDS011;1858;48.716;9.648;2023-06-04T00:49:43;9.60;;;2.10;;
3683;SDS011;1858;48.716;9.648;2023-06-04T00:52:13;11.37;;;2.20;;
3683;SDS011;1858;48.716;9.648;2023-06-04T00:54:42;10.70;;;2.40;;
3683;SDS011;1858;48.716;9.648;2023-06-04T00:57:11;9.00;;;1.70;;
3683;SDS011;1858;48.716;9.648;2023-06-04T00:59:39;8.70;;;1.60;;
3683;SDS011;1858;48.716;9.648;2023-06-04T01:02:09;9.67;;;1.37;;
3683;SDS011;1858;48.716;9.648;2023-06-04T01:05:12;10.20;;;2.07;;
3683;SDS011;1858;48.716;9.648;2023-06-04T01:07:26;9.23;;;1.50;;
3683;SDS011;1858;48.716;9.648;2023-06-04T01:09:58;8.80;;;1.40;;
3683;SDS011;1858;48.716;9.648;2023-06-04T01:12:26;9.40;;;1.90;;
3683;SDS011;1858;48.716;9.648;2023-06-04T01:14:54;9.63;;;2.40;;
3683;SDS011;1858;48.716;9.648;2023-06-04T01:17:29;9.80;;;2.07;;
3683;SDS011;1858;48.716;9.648;2023-06-04T01:20:05;10.00;;;2.07;;
3683;SDS011;1858;48.716;9.648;2023-06-04T01:25:32;11.33;;;2.43;;
3683;SDS011;1858;48.716;9.648;2023-06-04T01:28:04;10.90;;;2.77;;
3683;SDS011;1858;48.716;9.648;2023-06-04T01:33:23;9.83;;;1.77;;
3683;SDS011;1858;48.716;9.648;2023-06-04T01:35:51;10.23;;;2.10;;
3683;SDS011;1858;48.716;9.648;2023-06-04T01:41:07;8.90;;;1.70;;
3683;SDS011;1858;48.716;9.648;2023-06-04T01:43:36;11.13;;;1.50;;
3683;SDS011;1858;48.716;9.648;2023-06-04T01:46:04;11.90;;;2.10;;
3683;SDS011;1858;48.716;9.648;2023-06-04T01:48:33;8.80;;;1.73;;
3683;SDS011;1858;48.716;9.648;2023-06-04T01:51:01;9.97;;;1.60;;
3683;SDS011;1858;48.716;9.648;2023-06-04T01:53:30;9.90;;;1.50;;
3683;SDS011;1858;48.716;9.648;2023-06-04T01:55:58;9.00;;;1.70;;
3683;SDS011;1858;48.716;9.648;2023-06-04T01:58:27;13.10;;;2.20;;
3683;SDS011;1858;48.716;9.648;2023-06-04T02:00:57;9.47;;;2.43;;
3683;SDS011;1858;48.716;9.648;2023-06-04T02:03:26;11.23;;;3.03;;
3683;SDS011;1858;48.716;9.648;2023-06-04T02:05:56;8.80;;;1.60;;
3683;SDS011;1858;48.716;9.648;2023-06-04T02:08:25;9.93;;;2.00;;
3683;SDS011;1858;48.716;9.648;2023-06-04T02:10:54;11.03;;;2.23;;
3683;SDS011;1858;48.716;9.648;2023-06-04T02:13:22;13.80;;;1.93;;
3683;SDS011;1858;48.716;9.648;2023-06-04T02:15:50;17.23;;;2.07;;
3683;SDS011;1858;48.716;9.648;2023-06-04T02:18:20;11.37;;;1.80;;
3683;SDS011;1858;48.716;9.648;2023-06-04T02:20:49;10.60;;;2.23;;
3683;SDS011;1858;48.716;9.648;2023-06-04T02:23:18;9.60;;;1.73;;
3683;SDS011;1858;48.716;9.648;2023-06-04T02:25:47;8.87;;;1.40;;
3683;SDS011;1858;48.716;9.648;2023-06-04T02:28:16;10.90;;;2.20;;
3683;SDS011;1858;48.716;9.648;2023-06-04T02:30:44;9.13;;;1.73;;
3683;SDS011;1858;48.716;9.648;2023-06-04T02:36:01;12.33;;;2.00;;
3683;SDS011;1858;48.716;9.648;2023-06-04T02:38:30;8.70;;;1.60;;
3683;SDS011;1858;48.716;9.648;2023-06-04T02:40:58;11.47;;;1.90;;
3683;SDS011;1858;48.716;9.648;2023-06-04T02:43:26;9.87;;;1.83;;
3683;SDS011;1858;48.716;9.648;2023-06-04T02:45:55;9.60;;;1.70;;
3683;SDS011;1858;48.716;9.648;2023-06-04T02:48:23;11.50;;;2.10;;
3683;SDS011;1858;48.716;9.648;2023-06-04T02:50:51;11.03;;;2.70;;
3683;SDS011;1858;48.716;9.648;2023-06-04T02:53:20;9.83;;;2.20;;
3683;SDS011;1858;48.716;9.648;2023-06-04T02:55:50;14.90;;;2.00;;
3683;SDS011;1858;48.716;9.648;2023-06-04T02:58:20;10.00;;;2.47;;
3683;SDS011;1858;48.716;9.648;2023-06-04T03:00:51;9.87;;;1.90;;
3683;SDS011;1858;48.716;9.648;2023-06-04T03:03:22;11.27;;;2.47;;
3683;SDS011;1858;48.716;9.648;2023-06-04T03:05:50;10.10;;;2.00;;
3683;SDS011;1858;48.716;9.648;2023-06-04T03:08:19;9.80;;;2.03;;
3683;SDS011;1858;48.716;9.648;2023-06-04T03:10:47;16.47;;;3.10;;
3683;SDS011;1858;48.716;9.648;2023-06-04T03:13:16;13.13;;;2.90;;
3683;SDS011;1858;48.716;9.648;2023-06-04T03:15:44;10.27;;;2.23;;
3683;SDS011;1858;48.716;9.648;2023-06-04T03:18:14;13.00;;;2.07;;
3683;SDS011;1858;48.716;9.648;2023-06-04T03:20:43;11.70;;;2.33;;
3683;SDS011;1858;48.716;9.648;2023-06-04T03:23:12;9.93;;;1.60;;
3683;SDS011;1858;48.716;9.648;2023-06-04T03:25:40;8.53;;;1.23;;
3683;SDS011;1858;48.716;9.648;2023-06-04T03:28:09;15.63;;;1.80;;
3683;SDS011;1858;48.716;9.648;2023-06-04T03:30:37;12.97;;;1.90;;
3683;SDS011;1858;48.716;9.648;2023-06-04T03:33:07;9.27;;;1.53;;
3683;SDS011;1858;48.716;9.648;2023-06-04T03:35:35;10.77;;;2.20;;
3683;SDS011;1858;48.716;9.648;2023-06-04T03:38:04;8.93;;;1.50;;
3683;SDS011;1858;48.716;9.648;2023-06-04T03:40:32;14.20;;;1.80;;
3683;SDS011;1858;48.716;9.648;2023-06-04T03:43:00;10.50;;;1.53;;
3683;SDS011;1858;48.716;9.648;2023-06-04T03:45:30;10.53;;;2.20;;
3683;SDS011;1858;48.716;9.648;2023-06-04T03:47:59;10.00;;;1.63;;
3683;SDS011;1858;48.716;9.648;2023-06-04T03:50:27;9.23;;;1.30;;
3683;SDS011;1858;48.716;9.648;2023-06-04T03:52:56;8.60;;;1.30;;
3683;SDS011;1858;48.716;9.648;2023-06-04T03:55:25;8.20;;;1.00;;
3683;SDS011;1858;48.716;9.648;2023-06-04T03:57:53;8.30;;;1.20;;
3683;SDS011;1858;48.716;9.648;2023-06-04T04:00:21;8.30;;;1.10;;
3683;SDS011;1858;48.716;9.648;2023-06-04T04:02:50;11.87;;;2.13;;
3683;SDS011;1858;48.716;9.648;2023-06-04T04:05:18;9.40;;;1.83;;
3683;SDS011;1858;48.716;9.648;2023-06-04T04:07:47;9.60;;;1.80;;
3683;SDS011;1858;48.716;9.648;2023-06-04T04:10:15;8.70;;;1.63;;
3683;SDS011;1858;48.716;9.648;2023-06-04T04:12:43;9.10;;;2.50;;
3683;SDS011;1858;48.716;9.648;2023-06-04T04:15:12;8.93;;;1.20;;
3683;SDS011;1858;48.716;9.648;2023-06-04T04:17:41;11.20;;;2.20;;
3683;SDS011;1858;48.716;9.648;2023-06-04T04:20:09;11.00;;;1.60;;
3683;SDS011;1858;48.716;9.648;2023-06-04T04:22:41;9.77;;;1.67;;
3683;SDS011;1858;48.716;9.648;2023-06-04T04:25:10;8.90;;;1.47;;
3683;SDS011;1858;48.716;9.648;2023-06-04T04:27:38;11.50;;;2.50;;
3683;SDS011;1858;48.716;9.648;2023-06-04T04:30:09;8.43;;;1.33;;
3683;SDS011;1858;48.716;9.648;2023-06-04T04:32:58;9.73;;;1.43;;
3683;SDS011;1858;48.716;9.648;2023-06-04T04:35:27;10.50;;;1.90;;
3683;SDS011;1858;48.716;9.648;2023-06-04T04:37:58;11.47;;;1.47;;
3683;SDS011;1858;48.716;9.648;2023-06-04T04:40:48;12.30;;;1.67;;
3683;SDS011;1858;48.716;9.648;2023-06-04T04:43:28;13.67;;;2.10;;
3683;SDS011;1858;48.716;9.648;2023-06-04T04:45:58;9.10;;;1.50;;
3683;SDS011;1858;48.716;9.648;2023-06-04T04:48:27;8.90;;;1.23;;
3683;SDS011;1858;48.716;9.648;2023-06-04T04:50:55;10.33;;;1.33;;
3683;SDS011;1858;48.716;9.648;2023-06-04T04:53:24;9.30;;;1.53;;
3683;SDS011;1858;48.716;9.648;2023-06-04T04:55:53;9.27;;;1.43;;
3683;SDS011;1858;48.716;9.648;2023-06-04T04:58:21;9.20;;;1.80;;
3683;SDS011;1858;48.716;9.648;2023-06-04T05:00:50;8.93;;;1.13;;
3683;SDS011;1858;48.716;9.648;2023-06-04T05:03:18;8.50;;;1.27;;
3683;SDS011;1858;48.716;9.648;2023-06-04T05:05:46;8.47;;;0.90;;
3683;SDS011;1858;48.716;9.648;2023-06-04T05:08:15;8.53;;;1.00;;
3683;SDS011;1858;48.716;9.648;2023-06-04T05:10:43;13.57;;;1.67;;
3683;SDS011;1858;48.716;9.648;2023-06-04T05:13:12;9.60;;;1.47;;
3683;SDS011;1858;48.716;9.648;2023-06-04T05:15:46;8.37;;;1.13;;
3683;SDS011;1858;48.716;9.648;2023-06-04T05:18:14;8.93;;;0.90;;
3683;SDS011;1858;48.716;9.648;2023-06-04T05:20:43;11.10;;;0.90;;
3683;SDS011;1858;48.716;9.648;2023-06-04T05:23:11;8.67;;;1.23;;
3683;SDS011;1858;48.716;9.648;2023-06-04T05:25:40;9.80;;;1.23;;
3683;SDS011;1858;48.716;9.648;2023-06-04T05:28:09;8.40;;;1.30;;
3683;SDS011;1858;48.716;9.648;2023-06-04T05:30:39;9.17;;;1.17;;
3683;SDS011;1858;48.716;9.648;2023-06-04T05:33:08;8.30;;;1.20;;
3683;SDS011;1858;48.716;9.648;2023-06-04T05:36:00;8.90;;;1.00;;
3683;SDS011;1858;48.716;9.648;2023-06-04T05:38:29;11.53;;;1.43;;
3683;SDS011;1858;48.716;9.648;2023-06-04T05:40:57;8.90;;;1.33;;
3683;SDS011;1858;48.716;9.648;2023-06-04T05:43:26;9.00;;;1.40;;
3683;SDS011;1858;48.716;9.648;2023-06-04T05:45:54;10.87;;;1.50;;
3683;SDS011;1858;48.716;9.648;2023-06-04T05:48:22;8.53;;;0.90;;
3683;SDS011;1858;48.716;9.648;2023-06-04T05:50:51;8.30;;;1.03;;
3683;SDS011;1858;48.716;9.648;2023-06-04T05:53:20;10.57;;;1.00;;
3683;SDS011;1858;48.716;9.648;2023-06-04T05:55:48;8.90;;;0.97;;
3683;SDS011;1858;48.716;9.648;2023-06-04T05:58:16;8.03;;;0.87;;
3683;SDS011;1858;48.716;9.648;2023-06-04T06:00:45;9.07;;;1.23;;
3683;SDS011;1858;48.716;9.648;2023-06-04T06:03:15;9.07;;;1.20;;
3683;SDS011;1858;48.716;9.648;2023-06-04T06:05:43;10.57;;;1.30;;
3683;SDS011;1858;48.716;9.648;2023-06-04T06:08:33;9.57;;;1.70;;
3683;SDS011;1858;48.716;9.648;2023-06-04T06:11:01;8.70;;;1.23;;
3683;SDS011;1858;48.716;9.648;2023-06-04T06:13:31;9.23;;;1.63;;
3683;SDS011;1858;48.716;9.648;2023-06-04T06:16:00;9.40;;;1.43;;
3683;SDS011;1858;48.716;9.648;2023-06-04T06:18:28;9.10;;;1.47;;
3683;SDS011;1858;48.716;9.648;2023-06-04T06:20:57;8.03;;;0.83;;
3683;SDS011;1858;48.716;9.648;2023-06-04T06:23:25;9.40;;;1.17;;
3683;SDS011;1858;48.716;9.648;2023-06-04T06:28:35;11.43;;;1.40;;
3683;SDS011;1858;48.716;9.648;2023-06-04T06:31:03;8.80;;;1.70;;
3683;SDS011;1858;48.716;9.648;2023-06-04T06:33:32;8.87;;;1.10;;
3683;SDS011;1858;48.716;9.648;2023-06-04T06:36:00;8.90;;;1.40;;
3683;SDS011;1858;48.716;9.648;2023-06-04T06:38:29;13.13;;;1.83;;
3683;SDS011;1858;48.716;9.648;2023-06-04T06:40:58;8.97;;;1.27;;
3683;SDS011;1858;48.716;9.648;2023-06-04T06:43:27;13.17;;;2.93;;
3683;SDS011;1858;48.716;9.648;2023-06-04T06:45:55;8.53;;;1.20;;
3683;SDS011;1858;48.716;9.648;2023-06-04T06:48:23;10.27;;;1.10;;
3683;SDS011;1858;48.716;9.648;2023-06-04T06:50:52;9.73;;;1.50;;
3683;SDS011;1858;48.716;9.648;2023-06-04T06:53:21;8.70;;;1.20;;
3683;SDS011;1858;48.716;9.648;2023-06-04T06:55:49;9.77;;;1.50;;
3683;SDS011;1858;48.716;9.648;2023-06-04T06:58:18;8.63;;;1.20;;
3683;SDS011;1858;48.716;9.648;2023-06-04T07:00:46;10.60;;;1.30;;
3683;SDS011;1858;48.716;9.648;2023-06-04T07:03:15;8.20;;;0.93;;
3683;SDS011;1858;48.716;9.648;2023-06-04T07:08:31;9.07;;;1.13;;
3683;SDS011;1858;48.716;9.648;2023-06-04T07:11:00;9.27;;;1.13;;
3683;SDS011;1858;48.716;9.648;2023-06-04T07:13:30;8.40;;;1.30;;
3683;SDS011;1858;48.716;9.648;2023-06-04T07:16:00;13.83;;;1.77;;
3683;SDS011;1858;48.716;9.648;2023-06-04T07:18:29;8.57;;;1.13;;
3683;SDS011;1858;48.716;9.648;2023-06-04T07:20:59;9.27;;;1.30;;
3683;SDS011;1858;48.716;9.648;2023-06-04T07:23:27;8.67;;;1.37;;
3683;SDS011;1858;48.716;9.648;2023-06-04T07:25:56;8.80;;;1.20;;
3683;SDS011;1858;48.716;9.648;2023-06-04T07:28:25;8.70;;;1.10;;
3683;SDS011;1858;48.716;9.648;2023-06-04T07:30:53;8.17;;;1.07;;
3683;SDS011;1858;48.716;9.648;2023-06-04T07:33:21;8.50;;;1.13;;
3683;SDS011;1858;48.716;9.648;2023-06-04T07:35:50;8.43;;;1.40;;
3683;SDS011;1858;48.716;9.648;2023-06-04T07:38:19;9.40;;;1.50;;
3683;SDS011;1858;48.716;9.648;2023-06-04T07:40:47;9.73;;;1.67;;
3683;SDS011;1858;48.716;9.648;2023-06-04T07:43:16;8.27;;;1.20;;
3683;SDS011;1858;48.716;9.648;2023-06-04T07:45:44;8.27;;;1.27;;
3683;SDS011;1858;48.716;9.648;2023-06-04T07:48:13;8.83;;;1.47;;
3683;SDS011;1858;48.716;9.648;2023-06-04T07:50:41;8.33;;;1.23;;
3683;SDS011;1858;48.716;9.648;2023-06-04T07:53:09;9.70;;;1.80;;
3683;SDS011;1858;48.716;9.648;2023-06-04T07:55:38;8.27;;;1.10;;
3683;SDS011;1858;48.716;9.648;2023-06-04T07:58:06;8.80;;;1.53;;
3683;SDS011;1858;48.716;9.648;2023-06-04T08:00:35;7.87;;;0.97;;
3683;SDS011;1858;48.716;9.648;2023-06-04T08:03:03;8.80;;;1.80;;
3683;SDS011;1858;48.716;9.648;2023-06-04T08:05:32;8.10;;;1.00;;
3683;SDS011;1858;48.716;9.648;2023-06-04T08:08:01;9.33;;;1.20;;
3683;SDS011;1858;48.716;9.648;2023-06-04T08:10:30;8.30;;;1.33;;
3683;SDS011;1858;48.716;9.648;2023-06-04T08:12:59;8.27;;;1.17;;
3683;SDS011;1858;48.716;9.648;2023-06-04T08:15:27;8.60;;;1.80;;
3683;SDS011;1858;48.716;9.648;2023-06-04T08:17:56;9.20;;;1.40;;
3683;SDS011;1858;48.716;9.648;2023-06-04T08:20:24;7.97;;;0.97;;
3683;SDS011;1858;48.716;9.648;2023-06-04T08:22:53;9.20;;;1.23;;
3683;SDS011;1858;48.716;9.648;2023-06-04T08:25:21;8.93;;;1.50;;
3683;SDS011;1858;48.716;9.648;2023-06-04T08:27:50;9.70;;;1.37;;
3683;SDS011;1858;48.716;9.648;2023-06-04T08:30:18;10.80;;;1.23;;
3683;SDS011;1858;48.716;9.648;2023-06-04T08:32:47;11.00;;;2.10;;
3683;SDS011;1858;48.716;9.648;2023-06-04T08:35:15;8.40;;;1.10;;
3683;SDS011;1858;48.716;9.648;2023-06-04T08:37:43;8.90;;;1.43;;
3683;SDS011;1858;48.716;9.648;2023-06-04T08:40:12;8.37;;;1.43;;
3683;SDS011;1858;48.716;9.648;2023-06-04T08:42:41;8.20;;;1.10;;
3683;SDS011;1858;48.716;9.648;2023-06-04T08:45:13;7.90;;;1.40;;
3683;SDS011;1858;48.716;9.648;2023-06-04T08:47:48;10.50;;;1.70;;
3683;SDS011;1858;48.716;9.648;2023-06-04T08:55:59;7.80;;;1.23;;
3683;SDS011;1858;48.716;9.648;2023-06-04T08:58:29;7.70;;;1.10;;
3683;SDS011;1858;48.716;9.648;2023-06-04T09:01:17;9.20;;;1.27;;
3683;SDS011;1858;48.716;9.648;2023-06-04T09:03:45;8.20;;;1.20;;
3683;SDS011;1858;48.716;9.648;2023-06-04T09:06:15;9.47;;;1.50;;
3683;SDS011;1858;48.716;9.648;2023-06-04T09:08:43;9.90;;;1.60;;
3683;SDS011;1858;48.716;9.648;2023-06-04T09:14:24;8.07;;;1.13;;
3683;SDS011;1858;48.716;9.648;2023-06-04T09:16:53;8.10;;;1.10;;
3683;SDS011;1858;48.716;9.648;2023-06-04T09:19:25;7.60;;;0.90;;
3683;SDS011;1858;48.716;9.648;2023-06-04T09:21:57;7.93;;;1.13;;
3683;SDS011;1858;48.716;9.648;2023-06-04T09:24:46;7.97;;;1.23;;
3683;SDS011;1858;48.716;9.648;2023-06-04T09:27:20;8.43;;;1.20;;
3683;SDS011;1858;48.716;9.648;2023-06-04T09:30:11;8.17;;;1.23;;
3683;SDS011;1858;48.716;9.648;2023-06-04T09:33:06;8.67;;;1.43;;
3683;SDS011;1858;48.716;9.648;2023-06-04T09:35:55;9.70;;;1.73;;
3683;SDS011;1858;48.716;9.648;2023-06-04T09:38:35;8.30;;;1.80;;
3683;SDS011;1858;48.716;9.648;2023-06-04T09:41:03;9.10;;;1.23;;
3683;SDS011;1858;48.716;9.648;2023-06-04T09:43:33;8.50;;;1.30;;
3683;SDS011;1858;48.716;9.648;2023-06-04T09:46:09;7.93;;;1.33;;
3683;SDS011;1858;48.716;9.648;2023-06-04T09:51:30;9.67;;;1.67;;
3683;SDS011;1858;48.716;9.648;2023-06-04T09:54:00;9.60;;;1.53;;
3683;SDS011;1858;48.716;9.648;2023-06-04T09:56:38;10.03;;;1.73;;
3683;SDS011;1858;48.716;9.648;2023-06-04T09:59:02;8.70;;;1.50;;
3683;SDS011;1858;48.716;9.648;2023-06-04T10:01:31;14.20;;;1.80;;
3683;SDS011;1858;48.716;9.648;2023-06-04T10:04:02;8.83;;;1.40;;
3683;SDS011;1858;48.716;9.648;2023-06-04T10:06:33;8.60;;;1.50;;
3683;SDS011;1858;48.716;9.648;2023-06-04T10:09:08;8.53;;;1.23;;
3683;SDS011;1858;48.716;9.648;2023-06-04T10:11:37;9.83;;;1.33;;
3683;SDS011;1858;48.716;9.648;2023-06-04T10:14:41;10.03;;;1.13;;
3683;SDS011;1858;48.716;9.648;2023-06-04T10:17:30;8.70;;;1.40;;
3683;SDS011;1858;48.716;9.648;2023-06-04T10:20:01;7.70;;;1.30;;
3683;SDS011;1858;48.716;9.648;2023-06-04T10:22:32;8.30;;;1.30;;
3683;SDS011;1858;48.716;9.648;2023-06-04T10:25:01;8.00;;;1.33;;
3683;SDS011;1858;48.716;9.648;2023-06-04T10:27:30;12.60;;;2.10;;
3683;SDS011;1858;48.716;9.648;2023-06-04T10:30:01;12.83;;;2.03;;
3683;SDS011;1858;48.716;9.648;2023-06-04T10:32:30;8.47;;;1.47;;
3683;SDS011;1858;48.716;9.648;2023-06-04T10:35:03;9.27;;;1.83;;
3683;SDS011;1858;48.716;9.648;2023-06-04T10:37:52;11.80;;;2.00;;
3683;SDS011;1858;48.716;9.648;2023-06-04T10:40:31;8.63;;;1.70;;
3683;SDS011;1858;48.716;9.648;2023-06-04T10:42:55;8.57;;;1.60;;
3683;SDS011;1858;48.716;9.648;2023-06-04T10:45:28;9.73;;;1.63;;
3683;SDS011;1858;48.716;9.648;2023-06-04T10:48:13;9.30;;;1.47;;
3683;SDS011;1858;48.716;9.648;2023-06-04T10:53:35;8.40;;;1.67;;
3683;SDS011;1858;48.716;9.648;2023-06-04T10:56:01;9.73;;;1.73;;
3683;SDS011;1858;48.716;9.648;2023-06-04T10:58:33;8.73;;;1.40;;
3683;SDS011;1858;48.716;9.648;2023-06-04T11:01:02;8.50;;;1.63;;
3683;SDS011;1858;48.716;9.648;2023-06-04T11:06:18;8.70;;;1.60;;
3683;SDS011;1858;48.716;9.648;2023-06-04T11:08:48;13.60;;;2.20;;
3683;SDS011;1858;48.716;9.648;2023-06-04T11:11:16;9.00;;;1.73;;
3683;SDS011;1858;48.716;9.648;2023-06-04T11:14:06;9.23;;;1.73;;
3683;SDS011;1858;48.716;9.648;2023-06-04T11:21:56;9.07;;;1.67;;
3683;SDS011;1858;48.716;9.648;2023-06-04T11:24:24;9.60;;;2.00;;
3683;SDS011;1858;48.716;9.648;2023-06-04T11:26:54;10.13;;;2.27;;
3683;SDS011;1858;48.716;9.648;2023-06-04T11:29:30;9.27;;;1.90;;
3683;SDS011;1858;48.716;9.648;2023-06-04T11:32:00;9.60;;;2.20;;
3683;SDS011;1858;48.716;9.648;2023-06-04T11:34:29;13.87;;;2.40;;
3683;SDS011;1858;48.716;9.648;2023-06-04T11:37:08;13.07;;;1.90;;
3683;SDS011;1858;48.716;9.648;2023-06-04T11:39:37;8.97;;;1.87;;
3683;SDS011;1858;48.716;9.648;2023-06-04T11:42:06;10.10;;;1.93;;
3683;SDS011;1858;48.716;9.648;2023-06-04T11:44:35;10.67;;;2.60;;
3683;SDS011;1858;48.716;9.648;2023-06-04T11:47:07;8.70;;;1.80;;
3683;SDS011;1858;48.716;9.648;2023-06-04T11:49:56;9.20;;;1.90;;
3683;SDS011;1858;48.716;9.648;2023-06-04T11:52:26;13.20;;;2.17;;
3683;SDS011;1858;48.716;9.648;2023-06-04T11:54:55;9.60;;;2.13;;
3683;SDS011;1858;48.716;9.648;2023-06-04T11:57:24;13.93;;;2.43;;
3683;SDS011;1858;48.716;9.648;2023-06-04T11:59:53;8.87;;;1.90;;
3683;SDS011;1858;48.716;9.648;2023-06-04T12:02:21;11.40;;;2.20;;
3683;SDS011;1858;48.716;9.648;2023-06-04T12:04:51;9.37;;;2.33;;
3683;SDS011;1858;48.716;9.648;2023-06-04T12:07:20;9.90;;;2.23;;
3683;SDS011;1858;48.716;9.648;2023-06-04T12:09:52;10.03;;;2.20;;
3683;SDS011;1858;48.716;9.648;2023-06-04T12:12:23;10.60;;;2.17;;
3683;SDS011;1858;48.716;9.648;2023-06-04T12:14:58;9.43;;;2.23;;
3683;SDS011;1858;48.716;9.648;2023-06-04T12:17:26;8.87;;;1.63;;
3683;SDS011;1858;48.716;9.648;2023-06-04T12:19:55;9.10;;;2.20;;
3683;SDS011;1858;48.716;9.648;2023-06-04T12:22:25;10.43;;;1.43;;
3683;SDS011;1858;48.716;9.648;2023-06-04T12:27:48;9.47;;;2.17;;
3683;SDS011;1858;48.716;9.648;2023-06-04T12:30:17;11.37;;;2.50;;
3683;SDS011;1858;48.716;9.648;2023-06-04T12:32:46;10.63;;;2.17;;
3683;SDS011;1858;48.716;9.648;2023-06-04T12:35:14;9.80;;;2.00;;
3683;SDS011;1858;48.716;9.648;2023-06-04T12:37:43;8.93;;;1.80;;
3683;SDS011;1858;48.716;9.648;2023-06-04T12:40:12;10.57;;;1.80;;
3683;SDS011;1858;48.716;9.648;2023-06-04T12:42:40;12.37;;;2.90;;
3683;SDS011;1858;48.716;9.648;2023-06-04T12:45:10;9.63;;;2.13;;
3683;SDS011;1858;48.716;9.648;2023-06-04T12:47:41;9.30;;;1.77;;
3683;SDS011;1858;48.716;9.648;2023-06-04T12:50:09;12.10;;;2.53;;
3683;SDS011;1858;48.716;9.648;2023-06-04T12:52:38;9.47;;;1.90;;
3683;SDS011;1858;48.716;9.648;2023-06-04T12:55:06;9.97;;;1.53;;
3683;SDS011;1858;48.716;9.648;2023-06-04T12:57:35;9.03;;;1.70;;
3683;SDS011;1858;48.716;9.648;2023-06-04T13:02:52;9.47;;;2.00;;
3683;SDS011;1858;48.716;9.648;2023-06-04T13:05:20;9.73;;;2.00;;
3683;SDS011;1858;48.716;9.648;2023-06-04T13:07:49;9.00;;;1.80;;
3683;SDS011;1858;48.716;9.648;2023-06-04T13:10:18;8.80;;;2.00;;
3683;SDS011;1858;48.716;9.648;2023-06-04T13:12:47;9.27;;;2.17;;
3683;SDS011;1858;48.716;9.648;2023-06-04T13:15:15;9.60;;;2.00;;
3683;SDS011;1858;48.716;9.648;2023-06-04T13:17:44;10.07;;;2.23;;
3683;SDS011;1858;48.716;9.648;2023-06-04T13:20:13;12.17;;;2.53;;
3683;SDS011;1858;48.716;9.648;2023-06-04T13:22:41;10.40;;;1.93;;
3683;SDS011;1858;48.716;9.648;2023-06-04T13:25:10;10.70;;;2.07;;
3683;SDS011;1858;48.716;9.648;2023-06-04T13:27:39;10.40;;;2.20;;
3683;SDS011;1858;48.716;9.648;2023-06-04T13:30:08;9.37;;;1.70;;
3683;SDS011;1858;48.716;9.648;2023-06-04T13:35:25;9.70;;;2.00;;
3683;SDS011;1858;48.716;9.648;2023-06-04T13:37:53;9.30;;;1.83;;
3683;SDS011;1858;48.716;9.648;2023-06-04T13:40:22;9.80;;;2.00;;
3683;SDS011;1858;48.716;9.648;2023-06-04T13:42:50;10.03;;;1.93;;
3683;SDS011;1858;48.716;9.648;2023-06-04T13:45:19;9.10;;;2.17;;
3683;SDS011;1858;48.716;9.648;2023-06-04T13:47:47;11.27;;;2.13;;
3683;SDS011;1858;48.716;9.648;2023-06-04T13:50:16;9.50;;;1.60;;
3683;SDS011;1858;48.716;9.648;2023-06-04T13:52:45;9.23;;;1.80;;
3683;SDS011;1858;48.716;9.648;2023-06-04T13:55:13;9.90;;;2.03;;
3683;SDS011;1858;48.716;9.648;2023-06-04T13:57:42;10.30;;;2.13;;
3683;SDS011;1858;48.716;9.648;2023-06-04T14:00:10;9.93;;;1.90;;
3683;SDS011;1858;48.716;9.648;2023-06-04T14:02:40;9.03;;;1.80;;
3683;SDS011;1858;48.716;9.648;2023-06-04T14:05:08;10.30;;;2.00;;
3683;SDS011;1858;48.716;9.648;2023-06-04T14:07:37;10.23;;;2.47;;
3683;SDS011;1858;48.716;9.648;2023-06-04T14:10:05;9.83;;;1.90;;
3683;SDS011;1858;48.716;9.648;2023-06-04T14:12:34;15.77;;;2.70;;
3683;SDS011;1858;48.716;9.648;2023-06-04T14:15:03;9.33;;;2.00;;
3683;SDS011;1858;48.716;9.648;2023-06-04T14:17:32;9.40;;;1.90;;
3683;SDS011;1858;48.716;9.648;2023-06-04T14:20:01;9.67;;;2.07;;
3683;SDS011;1858;48.716;9.648;2023-06-04T14:22:40;10.53;;;2.07;;
3683;SDS011;1858;48.716;9.648;2023-06-04T14:27:54;9.93;;;1.90;;
3683;SDS011;1858;48.716;9.648;2023-06-04T14:30:22;9.60;;;2.10;;
3683;SDS011;1858;48.716;9.648;2023-06-04T14:32:50;9.27;;;1.80;;
3683;SDS011;1858;48.716;9.648;2023-06-04T14:35:19;11.47;;;2.13;;
3683;SDS011;1858;48.716;9.648;2023-06-04T14:37:47;10.00;;;2.37;;
3683;SDS011;1858;48.716;9.648;2023-06-04T14:40:16;10.40;;;2.30;;
3683;SDS011;1858;48.716;9.648;2023-06-04T14:42:44;12.17;;;2.97;;
3683;SDS011;1858;48.716;9.648;2023-06-04T14:45:13;9.63;;;1.80;;
3683;SDS011;1858;48.716;9.648;2023-06-04T14:47:41;9.97;;;2.10;;
3683;SDS011;1858;48.716;9.648;2023-06-04T14:50:10;9.77;;;2.07;;
3683;SDS011;1858;48.716;9.648;2023-06-04T14:52:38;9.57;;;2.07;;
3683;SDS011;1858;48.716;9.648;2023-06-04T14:57:54;10.40;;;2.03;;
3683;SDS011;1858;48.716;9.648;2023-06-04T15:00:23;9.40;;;1.73;;
3683;SDS011;1858;48.716;9.648;2023-06-04T15:02:51;9.50;;;1.90;;
3683;SDS011;1858;48.716;9.648;2023-06-04T15:05:20;12.80;;;2.27;;
3683;SDS011;1858;48.716;9.648;2023-06-04T15:07:48;9.50;;;2.60;;
3683;SDS011;1858;48.716;9.648;2023-06-04T15:10:17;12.43;;;3.03;;
3683;SDS011;1858;48.716;9.648;2023-06-04T15:12:45;13.83;;;2.03;;
3683;SDS011;1858;48.716;9.648;2023-06-04T15:15:14;11.47;;;2.20;;
3683;SDS011;1858;48.716;9.648;2023-06-04T15:17:42;9.10;;;2.00;;
3683;SDS011;1858;48.716;9.648;2023-06-04T15:20:11;9.60;;;2.00;;
3683;SDS011;1858;48.716;9.648;2023-06-04T15:22:39;9.07;;;2.10;;
3683;SDS011;1858;48.716;9.648;2023-06-04T15:25:08;9.93;;;2.17;;
3683;SDS011;1858;48.716;9.648;2023-06-04T15:27:36;10.00;;;2.30;;
3683;SDS011;1858;48.716;9.648;2023-06-04T15:30:08;11.93;;;2.40;;
3683;SDS011;1858;48.716;9.648;2023-06-04T15:32:36;10.33;;;1.70;;
3683;SDS011;1858;48.716;9.648;2023-06-04T15:37:53;9.27;;;1.93;;
3683;SDS011;1858;48.716;9.648;2023-06-04T15:40:21;9.97;;;2.27;;
3683;SDS011;1858;48.716;9.648;2023-06-04T15:42:50;10.20;;;2.33;;
3683;SDS011;1858;48.716;9.648;2023-06-04T15:45:18;9.93;;;2.20;;
3683;SDS011;1858;48.716;9.648;2023-06-04T15:47:48;10.73;;;2.03;;
3683;SDS011;1858;48.716;9.648;2023-06-04T15:50:18;12.53;;;2.03;;
3683;SDS011;1858;48.716;9.648;2023-06-04T15:52:46;9.30;;;2.00;;
3683;SDS011;1858;48.716;9.648;2023-06-04T15:55:15;9.47;;;1.97;;
3683;SDS011;1858;48.716;9.648;2023-06-04T15:57:44;11.87;;;2.70;;
3683;SDS011;1858;48.716;9.648;2023-06-04T16:00:12;13.20;;;2.17;;
3683;SDS011;1858;48.716;9.648;2023-06-04T16:02:41;10.63;;;2.40;;
3683;SDS011;1858;48.716;9.648;2023-06-04T16:05:09;10.30;;;2.00;;
3683;SDS011;1858;48.716;9.648;2023-06-04T16:07:37;10.83;;;2.13;;
3683;SDS011;1858;48.716;9.648;2023-06-04T16:10:06;9.17;;;1.83;;
3683;SDS011;1858;48.716;9.648;2023-06-04T16:12:35;9.10;;;1.70;;
3683;SDS011;1858;48.716;9.648;2023-06-04T16:15:03;9.50;;;1.90;;
3683;SDS011;1858;48.716;9.648;2023-06-04T16:17:33;10.57;;;2.40;;
3683;SDS011;1858;48.716;9.648;2023-06-04T16:20:01;8.90;;;1.83;;
3683;SDS011;1858;48.716;9.648;2023-06-04T16:22:30;10.00;;;2.10;;